Parks, AZ

8:28 AM MST on August 21, 2014 (GMT -0700)
Williams | Change Station
CLOSE
Current Station
Airport
Location: Williams,
Elevation: 6680 ft
Nearby Weather Stations

Elev 6680 ft 35.31 °N, 112.19 °W | Updated 13 minutes ago

Clear
Clear
57 °F
Feels Like 57 °F
N
0
Wind Variable Wind from North

Today
High -- | Low -- °F
--% Chance of Precip.
Yesterday
High -- | Low -- °F
Precip. -- in
5:52 AM 7:09 PM
Waning Crescent, 14% visible
Pressure 30.34 in
Visibility 10.0 miles
Clouds Clear
Dew Point 50 °F
Humidity 77%
Rainfall 0.00 in
Snow Depth 1 in
UV 3 out of 12
Pollen 4.50 out of 12
Air Quality Not available.
Flu Activity Not available.
METAR KCMR 211515Z AUTO 00000KT 10SM CLR 14/10 A3034 RMK AO1

More Conditions Fewer Conditions

Pressure 30.34 in
Visibility 10.0 miles
Clouds Clear
Dew Point 50 °F
Humidity 77%
Rainfall 0.00 in
Snow Depth 1 in
UV 3 out of 12
Pollen 4.50 out of 12
Air Quality Not available.
Flu Activity Not available.
METAR KCMR 211515Z AUTO 00000KT 10SM CLR 14/10 A3034 RMK AO1

More Conditions Fewer Conditions

10-Day Weather Forecast

Almanac

Astronomy

Aug. 21, 2014 Rise Set
Actual Time 5:52 AM MST 7:09 PM MST
Civil Twilight 5:25 AM MST 7:35 PM MST
Nautical Twilight 4:53 AM MST 8:07 PM MST
Astronomical Twilight 4:20 AM MST 8:40 PM MST
Moon 2:29 AM MST 4:37 PM MST
Length of Visible Light 14h 10m
Length of Day
13h 17m
Tomorrow will be 2m 1s shorter.
Waning Crescent, 14% of the Moon is Illuminated
Today
Waning Crescent
Aug 25
New
Sep 2
First Quarter
Sep 8
Full
Sep 15
Last Quarter

Today's Extremes

State Highs State Lows

Community

WunderPhotos

Upload Photos

1,745,947 photos uploaded!

Nearby

Snow Depth

Station Depth Elevation
White Horse Lake 1 in 7180 ft
Snowslide Canyon 1 in 9730 ft
Mormon Mountain 0 in 7500 ft
Promontory 0 in 7930 ft
Heber 0 in 7640 ft

Earthquake Activity

City Distance Mag. Time & Date
No recent earthquake activity has been reported nearby.
Minimum magnitude displayed is 2.5.

Coastal Water Temperatures

Place Temperature
No Stations Reporting

Nearby Weather Stations